createdAt,value
2018-12-19T00:01:06.204Z,20.87
2018-12-19T00:03:35.338Z,18.50
2018-12-19T00:06:04.489Z,23.87
2018-12-19T00:08:33.453Z,21.43
2018-12-19T00:11:02.096Z,19.93
2018-12-19T00:13:31.113Z,22.37
2018-12-19T00:16:00.095Z,19.90
2018-12-19T00:18:28.895Z,21.30
2018-12-19T00:20:57.551Z,17.63
2018-12-19T00:23:26.241Z,17.63
2018-12-19T00:25:54.938Z,21.63
2018-12-19T00:28:23.729Z,20.80
2018-12-19T00:30:52.481Z,23.77
2018-12-19T00:33:21.589Z,18.10
2018-12-19T00:35:50.567Z,19.17
2018-12-19T00:38:19.724Z,23.30
2018-12-19T00:40:48.611Z,17.93
2018-12-19T00:43:17.730Z,18.50
2018-12-19T00:45:46.978Z,21.83
2018-12-19T00:48:15.678Z,19.90
2018-12-19T00:50:44.576Z,15.93
2018-12-19T00:53:13.628Z,17.90
2018-12-19T00:55:43.024Z,16.70
2018-12-19T00:58:11.846Z,18.67
2018-12-19T01:00:40.881Z,20.27
2018-12-19T01:03:10.104Z,18.13
2018-12-19T01:05:39.029Z,18.43
2018-12-19T01:08:08.188Z,19.27
2018-12-19T01:10:37.176Z,21.87
2018-12-19T01:13:06.138Z,19.03
2018-12-19T01:15:35.390Z,17.93
2018-12-19T01:18:04.583Z,18.10
2018-12-19T01:20:33.356Z,20.40
2018-12-19T01:23:02.091Z,16.67
2018-12-19T01:25:30.845Z,17.70
2018-12-19T01:27:59.914Z,18.70
2018-12-19T01:30:28.699Z,16.47
2018-12-19T01:32:57.934Z,17.27
2018-12-19T01:35:26.721Z,22.30
2018-12-19T01:37:55.598Z,20.40
2018-12-19T01:40:24.285Z,19.07
2018-12-19T01:42:53.466Z,19.80
2018-12-19T01:45:22.647Z,19.27
2018-12-19T01:47:51.576Z,20.53
2018-12-19T01:50:21.110Z,18.30
2018-12-19T01:52:51.031Z,17.83
2018-12-19T01:55:20.111Z,18.30
2018-12-19T01:57:48.985Z,17.67
2018-12-19T02:00:20.041Z,16.60
2018-12-19T02:02:49.005Z,22.33
2018-12-19T02:05:17.823Z,18.87
2018-12-19T02:07:46.612Z,18.23
2018-12-19T02:10:15.744Z,18.07
2018-12-19T02:12:44.983Z,15.93
2018-12-19T02:15:13.903Z,17.37
2018-12-19T02:17:42.633Z,18.53
2018-12-19T02:20:11.448Z,17.80
2018-12-19T02:22:40.236Z,17.20
2018-12-19T02:25:10.044Z,18.57
2018-12-19T02:27:39.052Z,17.87
2018-12-19T02:30:08.130Z,16.27
2018-12-19T02:32:36.879Z,17.67
2018-12-19T02:35:05.837Z,17.57
2018-12-19T02:37:34.757Z,17.37
2018-12-19T02:40:03.623Z,17.63
2018-12-19T02:42:32.712Z,18.77
2018-12-19T02:45:01.736Z,18.23
2018-12-19T02:47:30.811Z,16.07
2018-12-19T02:49:59.455Z,19.33
2018-12-19T02:52:28.359Z,17.67
2018-12-19T02:54:57.253Z,17.77
2018-12-19T02:57:26.167Z,16.67
2018-12-19T02:59:55.102Z,17.37
2018-12-19T03:02:23.996Z,17.37
2018-12-19T03:04:52.899Z,17.33
2018-12-19T03:07:22.132Z,19.57
2018-12-19T03:09:51.156Z,21.77
2018-12-19T03:12:20.382Z,14.97
2018-12-19T03:14:49.126Z,16.10
2018-12-19T03:17:17.930Z,19.07
2018-12-19T03:19:46.823Z,16.03
2018-12-19T03:22:15.966Z,13.40
2018-12-19T03:24:45.205Z,19.53
2018-12-19T03:27:14.078Z,18.43
2018-12-19T03:29:43.081Z,15.70
2018-12-19T03:32:11.894Z,21.07
2018-12-19T03:34:41.062Z,19.53
2018-12-19T03:37:09.888Z,17.10
2018-12-19T03:39:38.895Z,17.93
2018-12-19T03:42:07.623Z,16.23
2018-12-19T03:44:36.517Z,19.37
2018-12-19T03:47:05.454Z,17.67
2018-12-19T03:49:34.400Z,16.80
2018-12-19T03:52:03.518Z,19.93
2018-12-19T03:54:32.808Z,19.83
2018-12-19T03:57:01.923Z,19.20
2018-12-19T03:59:30.669Z,16.00
2018-12-19T04:01:59.506Z,17.20
2018-12-19T04:04:28.557Z,19.37
2018-12-19T04:06:57.325Z,17.57
2018-12-19T04:09:26.037Z,16.57
2018-12-19T04:11:54.767Z,17.27
2018-12-19T04:14:24.037Z,17.47
2018-12-19T04:16:53.210Z,17.50
2018-12-19T04:19:22.106Z,17.30
2018-12-19T04:21:51.134Z,17.37
2018-12-19T04:24:20.279Z,15.23
2018-12-19T04:26:49.525Z,17.83
2018-12-19T04:29:18.602Z,17.07
2018-12-19T04:31:47.689Z,16.63
2018-12-19T04:34:16.723Z,16.47
2018-12-19T04:36:45.900Z,16.67
2018-12-19T04:39:14.783Z,21.63
2018-12-19T04:41:44.276Z,18.83
2018-12-19T04:44:13.350Z,18.00
2018-12-19T04:46:42.097Z,19.60
2018-12-19T04:49:11.890Z,17.00
2018-12-19T04:51:40.601Z,19.03
2018-12-19T04:54:09.602Z,20.40
2018-12-19T04:56:38.443Z,18.67
2018-12-19T04:59:07.577Z,18.80
2018-12-19T05:01:36.932Z,20.77
2018-12-19T05:04:06.037Z,18.50
2018-12-19T05:06:34.767Z,18.13
2018-12-19T05:09:05.938Z,18.17
2018-12-19T05:11:35.349Z,23.90
2018-12-19T05:14:04.569Z,20.63
2018-12-19T05:16:33.824Z,20.70
2018-12-19T05:19:02.600Z,25.07
2018-12-19T05:21:31.325Z,19.40
2018-12-19T05:23:59.999Z,22.77
2018-12-19T05:26:28.998Z,18.30
2018-12-19T05:28:57.972Z,23.43
2018-12-19T05:31:26.860Z,22.03
2018-12-19T05:33:55.744Z,18.33
2018-12-19T05:36:26.408Z,23.00
2018-12-19T05:38:55.514Z,22.53
2018-12-19T05:41:24.517Z,24.77
2018-12-19T05:43:53.617Z,22.40
2018-12-19T05:46:22.445Z,18.43
2018-12-19T05:48:51.439Z,20.87
2018-12-19T05:51:20.100Z,18.17
2018-12-19T05:53:48.874Z,22.23
2018-12-19T05:56:17.695Z,24.33
2018-12-19T05:58:46.754Z,21.43
2018-12-19T06:01:15.435Z,23.07
2018-12-19T06:03:44.622Z,23.10
2018-12-19T06:06:13.764Z,23.83
2018-12-19T06:08:42.561Z,23.13
2018-12-19T06:11:11.641Z,24.33
2018-12-19T06:13:40.731Z,25.97
2018-12-19T06:16:09.396Z,25.23
2018-12-19T06:18:38.447Z,25.60
2018-12-19T06:21:07.259Z,23.73
2018-12-19T06:23:35.964Z,25.13
2018-12-19T06:26:05.103Z,27.50
2018-12-19T06:28:34.039Z,29.53
2018-12-19T06:31:03.088Z,22.83
2018-12-19T06:33:31.797Z,23.50
2018-12-19T06:36:01.209Z,26.33
2018-12-19T06:38:30.009Z,25.97
2018-12-19T06:40:58.754Z,25.33
2018-12-19T06:43:27.958Z,23.07
2018-12-19T06:45:56.681Z,25.07
2018-12-19T06:48:25.625Z,27.67
2018-12-19T06:50:54.588Z,29.70
2018-12-19T06:53:23.223Z,27.30
2018-12-19T06:55:51.942Z,27.17
2018-12-19T06:58:20.813Z,22.90
2018-12-19T07:00:49.579Z,24.80
2018-12-19T07:03:18.726Z,25.80
2018-12-19T07:05:47.534Z,28.37
2018-12-19T07:08:16.380Z,25.93
2018-12-19T07:10:45.242Z,26.97
2018-12-19T07:13:14.452Z,29.67
2018-12-19T07:15:43.387Z,29.87
2018-12-19T07:18:12.283Z,31.47
2018-12-19T07:20:41.071Z,28.00
2018-12-19T07:23:09.928Z,30.43
2018-12-19T07:25:38.752Z,30.27
2018-12-19T07:28:07.456Z,26.47
2018-12-19T07:30:36.365Z,28.40
2018-12-19T07:33:05.658Z,29.07
2018-12-19T07:35:34.679Z,29.07
2018-12-19T07:38:03.718Z,29.03
2018-12-19T07:40:32.819Z,27.73
2018-12-19T07:43:01.791Z,28.17
2018-12-19T07:45:30.664Z,28.97
2018-12-19T07:47:59.602Z,29.97
2018-12-19T07:50:28.829Z,26.07
2018-12-19T07:52:57.534Z,27.77
2018-12-19T07:55:28.098Z,27.97
2018-12-19T07:57:56.927Z,27.73
2018-12-19T08:00:27.615Z,29.70
2018-12-19T08:02:56.519Z,30.90
2018-12-19T08:05:26.353Z,28.00
2018-12-19T08:07:55.863Z,30.20
2018-12-19T08:10:24.951Z,30.13
2018-12-19T08:12:54.089Z,29.57
2018-12-19T08:15:22.769Z,29.40
2018-12-19T08:17:51.641Z,28.03
2018-12-19T08:20:20.699Z,27.80
2018-12-19T08:22:49.636Z,28.60
2018-12-19T08:25:18.483Z,27.13
2018-12-19T08:27:47.171Z,25.67
2018-12-19T08:30:15.886Z,31.37
2018-12-19T08:32:44.515Z,28.63
2018-12-19T08:35:13.400Z,29.67
2018-12-19T08:37:42.219Z,31.37
2018-12-19T08:40:11.391Z,26.03
2018-12-19T08:42:40.254Z,29.30
2018-12-19T08:45:09.342Z,26.93
2018-12-19T08:47:38.307Z,31.27
2018-12-19T08:50:09.336Z,30.27
2018-12-19T08:52:38.544Z,29.83
2018-12-19T08:55:08.583Z,25.30
2018-12-19T08:57:37.684Z,28.57
2018-12-19T09:00:08.314Z,27.87
2018-12-19T09:02:37.369Z,28.70
2018-12-19T09:05:06.524Z,28.03
2018-12-19T09:07:35.603Z,31.87
2018-12-19T09:10:05.213Z,28.83
2018-12-19T09:12:34.077Z,25.87
2018-12-19T09:15:02.776Z,29.27
2018-12-19T09:17:31.988Z,31.50
2018-12-19T09:20:01.010Z,33.57
2018-12-19T09:22:30.177Z,29.93
2018-12-19T09:24:58.932Z,24.77
2018-12-19T09:27:27.896Z,28.23
2018-12-19T09:29:56.878Z,28.33
2018-12-19T09:32:25.909Z,30.33
2018-12-19T09:34:55.178Z,26.50
2018-12-19T09:37:24.392Z,30.43
2018-12-19T09:39:53.066Z,28.07
2018-12-19T09:42:21.747Z,32.03
2018-12-19T09:44:50.725Z,29.60
2018-12-19T09:47:19.655Z,24.80
2018-12-19T09:50:19.374Z,27.17
2018-12-19T09:52:48.547Z,30.17
2018-12-19T09:55:17.437Z,27.33
2018-12-19T09:57:46.423Z,30.00
2018-12-19T10:00:33.643Z,28.60
2018-12-19T10:03:02.327Z,33.17
2018-12-19T10:05:31.462Z,25.60
2018-12-19T10:08:00.561Z,27.43
2018-12-19T10:10:29.858Z,27.80
2018-12-19T10:12:59.027Z,25.47
2018-12-19T10:15:27.895Z,27.53
2018-12-19T10:17:56.654Z,26.67
2018-12-19T10:20:25.897Z,28.57
2018-12-19T10:22:56.160Z,31.03
2018-12-19T10:25:25.401Z,30.00
2018-12-19T10:27:54.194Z,28.03
2018-12-19T10:30:23.496Z,27.73
2018-12-19T10:32:57.046Z,27.40
2018-12-19T10:35:26.667Z,27.70
2018-12-19T10:37:55.440Z,31.10
2018-12-19T10:40:24.901Z,30.90
2018-12-19T10:42:54.177Z,32.60
2018-12-19T10:45:22.996Z,25.63
2018-12-19T10:47:51.933Z,25.63
2018-12-19T10:50:21.122Z,29.10
2018-12-19T10:52:50.268Z,28.00
2018-12-19T10:55:19.303Z,26.97
2018-12-19T10:57:47.942Z,23.80
2018-12-19T11:00:21.779Z,29.40
2018-12-19T11:02:50.621Z,29.07
2018-12-19T11:05:19.724Z,28.00
2018-12-19T11:07:48.897Z,26.97
2018-12-19T11:10:18.292Z,25.63
2018-12-19T11:12:48.065Z,25.70
2018-12-19T11:15:16.923Z,25.50
2018-12-19T11:17:45.949Z,25.77
2018-12-19T11:20:15.167Z,29.23
2018-12-19T11:22:44.218Z,29.73
2018-12-19T11:25:13.398Z,27.60
2018-12-19T11:27:42.528Z,28.80
2018-12-19T11:30:11.613Z,29.80
2018-12-19T11:32:40.661Z,29.43
2018-12-19T11:35:09.546Z,30.50
2018-12-19T11:37:38.591Z,29.87
2018-12-19T11:40:09.057Z,28.33
2018-12-19T11:42:37.975Z,28.03
2018-12-19T11:45:07.773Z,26.80
2018-12-19T11:47:36.714Z,27.43
2018-12-19T11:50:06.855Z,25.30
2018-12-19T11:52:35.642Z,23.57
2018-12-19T11:55:04.626Z,28.27
2018-12-19T11:57:34.467Z,27.13
2018-12-19T12:00:03.980Z,26.30
2018-12-19T12:02:33.164Z,29.17
2018-12-19T12:05:01.880Z,27.13
2018-12-19T12:07:30.964Z,31.40
2018-12-19T12:09:59.957Z,25.97
2018-12-19T12:12:29.202Z,26.57
2018-12-19T12:14:58.335Z,26.37
2018-12-19T12:17:27.415Z,27.87
2018-12-19T12:19:56.852Z,25.40
2018-12-19T12:22:26.240Z,26.53
2018-12-19T12:24:54.915Z,27.47
2018-12-19T12:27:23.615Z,28.80
2018-12-19T12:29:52.423Z,25.63
2018-12-19T12:32:21.106Z,27.67
2018-12-19T12:34:50.261Z,25.23
2018-12-19T12:37:19.211Z,31.43
2018-12-19T12:39:48.118Z,23.33
2018-12-19T12:42:17.178Z,29.63
2018-12-19T12:44:46.556Z,25.43
2018-12-19T12:47:15.398Z,27.30
2018-12-19T12:49:44.171Z,28.27
2018-12-19T12:52:12.903Z,27.03
2018-12-19T12:54:41.524Z,32.37
2018-12-19T12:57:10.428Z,30.33
2018-12-19T12:59:39.267Z,28.67
2018-12-19T13:02:07.982Z,29.30
2018-12-19T13:04:36.736Z,27.07
2018-12-19T13:07:05.564Z,27.47
2018-12-19T13:09:34.555Z,26.97
2018-12-19T13:12:03.649Z,27.20
2018-12-19T13:14:32.698Z,30.00
2018-12-19T13:17:01.563Z,30.00
2018-12-19T13:19:30.355Z,28.87
2018-12-19T13:21:59.227Z,32.47
2018-12-19T13:24:28.171Z,29.23
2018-12-19T13:26:57.100Z,31.80
2018-12-19T13:29:25.910Z,30.83
2018-12-19T13:31:55.007Z,28.87
2018-12-19T13:34:23.798Z,32.00
2018-12-19T13:36:52.636Z,30.00
2018-12-19T13:39:21.408Z,30.00
2018-12-19T13:41:50.127Z,33.53
2018-12-19T13:44:18.829Z,32.90
2018-12-19T13:46:47.672Z,26.73
2018-12-19T13:49:16.850Z,36.87
2018-12-19T13:51:45.849Z,28.33
2018-12-19T13:54:14.840Z,30.83
2018-12-19T13:56:43.676Z,32.07
2018-12-19T13:59:12.391Z,30.83
2018-12-19T14:01:41.134Z,27.83
2018-12-19T14:04:10.171Z,29.70
2018-12-19T14:06:38.869Z,27.40
2018-12-19T14:09:08.286Z,29.43
2018-12-19T14:11:37.134Z,26.07
2018-12-19T14:14:06.721Z,33.00
2018-12-19T14:16:36.111Z,30.87
2018-12-19T14:19:05.189Z,31.17
2018-12-19T14:21:34.026Z,28.67
2018-12-19T14:24:02.979Z,36.00
2018-12-19T14:26:32.269Z,29.20
2018-12-19T14:29:01.351Z,28.80
2018-12-19T14:31:30.338Z,31.17
2018-12-19T14:34:00.121Z,29.53
2018-12-19T14:36:29.353Z,30.50
2018-12-19T14:38:58.400Z,31.77
2018-12-19T14:41:27.819Z,28.33
2018-12-19T14:43:56.858Z,26.40
2018-12-19T14:46:25.536Z,32.77
2018-12-19T14:48:54.413Z,30.47
2018-12-19T14:51:23.702Z,27.00
2018-12-19T14:53:52.726Z,23.40
2018-12-19T14:56:21.758Z,29.33
2018-12-19T14:58:50.915Z,28.67
2018-12-19T15:01:19.847Z,28.37
2018-12-19T15:03:48.851Z,24.87
2018-12-19T15:06:18.225Z,31.27
2018-12-19T15:08:46.983Z,28.43
2018-12-19T15:11:15.902Z,27.67
2018-12-19T15:13:46.185Z,30.53
2018-12-19T15:16:19.283Z,27.40
2018-12-19T15:18:48.356Z,27.03
2018-12-19T15:21:17.746Z,26.73
2018-12-19T15:23:46.698Z,25.03
2018-12-19T15:26:15.825Z,27.17
2018-12-19T15:28:45.014Z,28.53
2018-12-19T15:31:13.912Z,30.67
2018-12-19T15:33:43.038Z,28.73
2018-12-19T15:36:12.503Z,30.63
2018-12-19T15:38:41.208Z,27.80
2018-12-19T15:41:10.429Z,27.40
2018-12-19T15:43:39.519Z,28.83
2018-12-19T15:46:08.411Z,28.07
2018-12-19T15:48:37.117Z,30.47
2018-12-19T15:51:06.241Z,27.60
2018-12-19T15:53:35.206Z,30.13
2018-12-19T15:56:04.090Z,28.40
2018-12-19T15:58:33.392Z,26.67
2018-12-19T16:01:02.696Z,28.53
2018-12-19T16:03:31.593Z,28.53
2018-12-19T16:06:00.470Z,36.07
2018-12-19T16:08:29.177Z,27.07
2018-12-19T16:10:58.043Z,27.17
2018-12-19T16:13:27.143Z,32.37
2018-12-19T16:15:56.959Z,24.70
2018-12-19T16:18:26.357Z,28.83
2018-12-19T16:20:55.871Z,33.10
2018-12-19T16:23:25.114Z,34.37
2018-12-19T16:25:53.965Z,34.03
2018-12-19T16:28:23.090Z,34.27
2018-12-19T16:30:52.208Z,30.17
2018-12-19T16:33:21.280Z,28.20
2018-12-19T16:35:50.151Z,28.10
2018-12-19T16:38:19.348Z,29.23
2018-12-19T16:40:48.334Z,28.63
2018-12-19T16:43:17.122Z,23.77
2018-12-19T16:45:46.321Z,27.20
2018-12-19T16:48:15.091Z,27.20
2018-12-19T16:50:43.846Z,28.87
2018-12-19T16:53:12.765Z,25.87
2018-12-19T16:55:41.647Z,26.30
2018-12-19T16:58:11.139Z,31.70
2018-12-19T17:00:40.026Z,28.70
2018-12-19T17:03:09.288Z,27.13
2018-12-19T17:05:38.175Z,29.53
2018-12-19T17:08:07.433Z,26.03
2018-12-19T17:10:36.418Z,27.27
2018-12-19T17:13:05.514Z,27.63
2018-12-19T17:15:38.704Z,26.43
2018-12-19T17:18:08.237Z,27.27
2018-12-19T17:20:37.475Z,28.13
2018-12-19T17:23:06.854Z,26.07
2018-12-19T17:25:36.214Z,28.50
2018-12-19T17:28:07.171Z,28.73
2018-12-19T17:30:36.271Z,28.30
2018-12-19T17:33:05.697Z,29.80
2018-12-19T17:35:34.726Z,25.93
2018-12-19T17:38:06.517Z,30.93
2018-12-19T17:40:35.812Z,28.00
2018-12-19T17:43:04.825Z,27.67
2018-12-19T17:45:34.110Z,28.10
2018-12-19T17:48:03.296Z,27.87
2018-12-19T17:50:32.258Z,28.40
2018-12-19T17:53:01.301Z,27.07
2018-12-19T17:55:31.141Z,29.40
2018-12-19T17:58:01.303Z,28.10
2018-12-19T18:00:30.482Z,28.50
2018-12-19T18:02:59.749Z,31.07
2018-12-19T18:05:29.009Z,25.73
2018-12-19T18:07:57.995Z,25.33
2018-12-19T18:10:27.107Z,28.03
2018-12-19T18:12:56.220Z,26.70
2018-12-19T18:15:25.661Z,26.93
2018-12-19T18:17:55.003Z,28.63
2018-12-19T18:20:24.354Z,25.27
2018-12-19T18:22:53.743Z,33.27
2018-12-19T18:25:22.929Z,26.67
2018-12-19T18:27:52.463Z,29.63
2018-12-19T18:30:22.142Z,27.03
2018-12-19T18:32:51.580Z,24.83
2018-12-19T18:35:20.806Z,23.87
2018-12-19T18:37:50.200Z,27.40
2018-12-19T18:40:19.297Z,28.80
2018-12-19T18:42:48.550Z,27.37
2018-12-19T18:45:17.827Z,28.80
2018-12-19T18:47:47.055Z,24.37
2018-12-19T18:50:16.242Z,31.40
2018-12-19T18:52:45.832Z,26.40
2018-12-19T18:55:14.995Z,25.50
2018-12-19T18:57:44.401Z,24.03
2018-12-19T19:00:16.213Z,26.53
2018-12-19T19:02:45.461Z,24.53
2018-12-19T19:05:15.126Z,25.00
2018-12-19T19:07:44.810Z,24.00
2018-12-19T19:10:14.474Z,20.10
2018-12-19T19:12:45.160Z,22.57
2018-12-19T19:15:14.934Z,18.50
2018-12-19T19:17:44.890Z,23.73
2018-12-19T19:20:14.655Z,25.17
2018-12-19T19:22:44.247Z,22.53
2018-12-19T19:25:13.951Z,27.50
2018-12-19T19:27:43.595Z,24.07
2018-12-19T19:30:13.128Z,24.13
2018-12-19T19:32:42.892Z,25.80
2018-12-19T19:35:12.569Z,23.17
2018-12-19T19:37:42.375Z,24.93
2018-12-19T19:40:12.203Z,26.47
2018-12-19T19:42:42.053Z,22.50
2018-12-19T19:45:11.690Z,23.30
2018-12-19T19:47:41.758Z,20.57
2018-12-19T19:50:11.588Z,22.83
2018-12-19T19:52:41.388Z,24.87
2018-12-19T19:55:11.246Z,24.63
2018-12-19T19:57:41.129Z,24.43
2018-12-19T20:00:12.120Z,25.37
2018-12-19T20:02:42.103Z,26.30
2018-12-19T20:05:11.977Z,24.23
2018-12-19T20:07:41.804Z,23.03
2018-12-19T20:10:11.834Z,26.53
2018-12-19T20:12:41.656Z,27.93
2018-12-19T20:15:11.399Z,26.17
2018-12-19T20:17:41.980Z,23.23
2018-12-19T20:20:11.708Z,24.93
2018-12-19T20:22:42.229Z,23.53
2018-12-19T20:25:12.992Z,20.27
2018-12-19T20:27:42.724Z,16.80
2018-12-19T20:30:13.749Z,15.53
2018-12-19T20:32:43.451Z,17.50
2018-12-19T20:35:13.053Z,15.53
2018-12-19T20:37:42.424Z,16.57
2018-12-19T20:40:11.984Z,12.00
2018-12-19T20:42:41.255Z,14.07
2018-12-19T20:45:10.506Z,13.73
2018-12-19T20:47:40.015Z,15.73
2018-12-19T20:50:09.748Z,16.20
2018-12-19T20:52:38.932Z,15.70
2018-12-19T20:55:09.280Z,14.13
2018-12-19T20:57:38.562Z,15.37
2018-12-19T21:00:08.424Z,16.00
2018-12-19T21:02:37.620Z,12.23
2018-12-19T21:05:07.080Z,15.43
2018-12-19T21:07:39.414Z,26.63
2018-12-19T21:10:09.204Z,17.50
2018-12-19T21:12:38.522Z,12.87
2018-12-19T21:15:08.590Z,14.17
2018-12-19T21:17:43.498Z,13.57
2018-12-19T21:20:12.717Z,15.23
2018-12-19T21:22:42.151Z,12.57
2018-12-19T21:25:11.531Z,12.07
2018-12-19T21:27:40.730Z,12.43
2018-12-19T21:30:10.752Z,12.40
2018-12-19T21:32:40.019Z,15.10
2018-12-19T21:35:09.349Z,13.60
2018-12-19T21:37:38.643Z,11.43
2018-12-19T21:40:08.156Z,10.67
2018-12-19T21:42:37.534Z,11.27
2018-12-19T21:45:07.123Z,9.60
2018-12-19T21:47:35.885Z,10.73
2018-12-19T21:50:05.064Z,10.37
2018-12-19T21:52:33.995Z,8.53
2018-12-19T21:55:02.763Z,10.97
2018-12-19T21:57:31.564Z,10.97
2018-12-19T22:00:00.323Z,10.33
2018-12-19T22:02:29.130Z,9.90
2018-12-19T22:04:58.104Z,11.97
2018-12-19T22:07:26.861Z,8.27
2018-12-19T22:09:55.780Z,9.70
2018-12-19T22:12:24.547Z,9.03
2018-12-19T22:14:53.802Z,7.43
2018-12-19T22:17:27.743Z,8.53
2018-12-19T22:19:56.413Z,8.57
2018-12-19T22:22:25.262Z,8.80
2018-12-19T22:24:54.050Z,7.13
2018-12-19T22:27:22.818Z,8.10
2018-12-19T22:29:51.680Z,7.37
2018-12-19T22:32:20.525Z,8.13
2018-12-19T22:34:49.243Z,7.83
2018-12-19T22:37:17.924Z,6.60
2018-12-19T22:39:46.762Z,6.90
2018-12-19T22:42:15.451Z,6.30
2018-12-19T22:44:44.154Z,9.37
2018-12-19T22:47:12.923Z,6.63
2018-12-19T22:49:42.603Z,6.20
2018-12-19T22:52:11.322Z,6.27
2018-12-19T22:54:40.042Z,6.23
2018-12-19T22:57:08.859Z,5.27
2018-12-19T22:59:37.701Z,6.27
2018-12-19T23:03:13.075Z,7.50
2018-12-19T23:05:47.258Z,8.90
2018-12-19T23:08:16.138Z,6.27
2018-12-19T23:10:44.900Z,4.93
2018-12-19T23:16:45.198Z,5.83
2018-12-19T23:19:14.163Z,5.17
2018-12-19T23:21:42.890Z,4.83
2018-12-19T23:24:11.745Z,5.03
2018-12-19T23:26:40.628Z,4.90
2018-12-19T23:29:09.331Z,4.27
2018-12-19T23:31:38.151Z,5.27
2018-12-19T23:34:07.050Z,4.33
2018-12-19T23:36:36.000Z,4.07
2018-12-19T23:39:07.384Z,4.60
2018-12-19T23:41:36.265Z,5.47
2018-12-19T23:44:05.141Z,5.47
2018-12-19T23:46:35.376Z,4.10
2018-12-19T23:49:04.285Z,4.53
2018-12-19T23:51:33.068Z,7.00
2018-12-19T23:54:01.783Z,5.10
2018-12-19T23:56:30.504Z,6.07
2018-12-19T23:58:59.636Z,5.37
